sensor_id;sensor_type;location;lat;lon;timestamp;P1;durP1;ratioP1;P2;durP2;ratioP2
24443;SDS011;13346;50.984;5.822;2024-03-23T00:54:33;8.70;;;3.00;;
24443;SDS011;13346;50.984;5.822;2024-03-23T00:57:01;10.77;;;2.80;;
24443;SDS011;13346;50.984;5.822;2024-03-23T00:59:27;10.57;;;2.70;;
24443;SDS011;13346;50.984;5.822;2024-03-23T01:01:56;10.07;;;1.83;;
24443;SDS011;13346;50.984;5.822;2024-03-23T01:04:22;6.17;;;2.47;;
24443;SDS011;13346;50.984;5.822;2024-03-23T01:06:49;5.67;;;2.40;;
24443;SDS011;13346;50.984;5.822;2024-03-23T01:09:16;4.73;;;2.33;;
24443;SDS011;13346;50.984;5.822;2024-03-23T01:11:44;5.87;;;2.60;;
24443;SDS011;13346;50.984;5.822;2024-03-23T01:14:10;5.57;;;2.43;;
24443;SDS011;13346;50.984;5.822;2024-03-23T01:16:37;7.43;;;3.43;;
24443;SDS011;13346;50.984;5.822;2024-03-23T01:19:04;4.00;;;2.87;;
24443;SDS011;13346;50.984;5.822;2024-03-23T01:21:31;4.77;;;2.50;;
24443;SDS011;13346;50.984;5.822;2024-03-23T01:23:57;3.57;;;2.10;;
24443;SDS011;13346;50.984;5.822;2024-03-23T01:26:25;4.73;;;3.10;;
24443;SDS011;13346;50.984;5.822;2024-03-23T01:28:52;7.20;;;2.50;;
24443;SDS011;13346;50.984;5.822;2024-03-23T01:31:19;9.33;;;3.93;;
24443;SDS011;13346;50.984;5.822;2024-03-23T01:33:45;7.20;;;2.00;;
24443;SDS011;13346;50.984;5.822;2024-03-23T01:36:13;6.03;;;2.03;;
24443;SDS011;13346;50.984;5.822;2024-03-23T01:38:39;5.83;;;2.53;;
24443;SDS011;13346;50.984;5.822;2024-03-23T01:41:06;6.10;;;2.07;;
24443;SDS011;13346;50.984;5.822;2024-03-23T01:43:32;6.63;;;2.13;;
24443;SDS011;13346;50.984;5.822;2024-03-23T01:46:01;7.37;;;3.30;;
24443;SDS011;13346;50.984;5.822;2024-03-23T01:48:28;9.70;;;2.13;;
24443;SDS011;13346;50.984;5.822;2024-03-23T01:50:55;5.90;;;1.70;;
24443;SDS011;13346;50.984;5.822;2024-03-23T01:53:21;3.67;;;1.87;;
24443;SDS011;13346;50.984;5.822;2024-03-23T01:55:48;3.70;;;2.40;;
24443;SDS011;13346;50.984;5.822;2024-03-23T01:58:16;9.63;;;2.53;;
24443;SDS011;13346;50.984;5.822;2024-03-23T02:00:43;9.97;;;2.43;;
24443;SDS011;13346;50.984;5.822;2024-03-23T02:03:23;8.33;;;2.03;;
24443;SDS011;13346;50.984;5.822;2024-03-23T02:05:51;6.10;;;2.47;;
24443;SDS011;13346;50.984;5.822;2024-03-23T02:08:18;4.80;;;2.30;;
24443;SDS011;13346;50.984;5.822;2024-03-23T02:10:48;3.73;;;1.77;;
24443;SDS011;13346;50.984;5.822;2024-03-23T02:13:14;2.90;;;2.00;;
24443;SDS011;13346;50.984;5.822;2024-03-23T02:15:41;7.97;;;2.27;;
24443;SDS011;13346;50.984;5.822;2024-03-23T02:18:08;4.83;;;2.47;;
24443;SDS011;13346;50.984;5.822;2024-03-23T02:20:37;8.13;;;2.10;;
24443;SDS011;13346;50.984;5.822;2024-03-23T02:23:05;8.57;;;2.73;;
24443;SDS011;13346;50.984;5.822;2024-03-23T02:25:32;4.70;;;2.90;;
24443;SDS011;13346;50.984;5.822;2024-03-23T02:27:58;4.27;;;2.23;;
24443;SDS011;13346;50.984;5.822;2024-03-23T02:30:26;4.20;;;1.50;;
24443;SDS011;13346;50.984;5.822;2024-03-23T02:32:52;6.37;;;2.37;;
24443;SDS011;13346;50.984;5.822;2024-03-23T02:35:19;4.80;;;2.30;;
24443;SDS011;13346;50.984;5.822;2024-03-23T02:37:46;11.90;;;2.93;;
24443;SDS011;13346;50.984;5.822;2024-03-23T02:40:15;10.40;;;3.00;;
24443;SDS011;13346;50.984;5.822;2024-03-23T02:42:41;8.13;;;2.80;;
24443;SDS011;13346;50.984;5.822;2024-03-23T02:45:09;4.20;;;2.23;;
24443;SDS011;13346;50.984;5.822;2024-03-23T02:47:35;7.93;;;2.47;;
24443;SDS011;13346;50.984;5.822;2024-03-23T02:50:02;9.17;;;2.20;;
24443;SDS011;13346;50.984;5.822;2024-03-23T02:52:29;9.07;;;2.63;;
24443;SDS011;13346;50.984;5.822;2024-03-23T02:54:56;6.23;;;2.13;;
24443;SDS011;13346;50.984;5.822;2024-03-23T02:57:24;7.47;;;2.10;;
24443;SDS011;13346;50.984;5.822;2024-03-23T02:59:52;10.23;;;2.27;;
24443;SDS011;13346;50.984;5.822;2024-03-23T03:02:18;6.53;;;2.30;;
24443;SDS011;13346;50.984;5.822;2024-03-23T03:04:46;4.70;;;2.63;;
24443;SDS011;13346;50.984;5.822;2024-03-23T03:07:13;5.23;;;2.70;;
24443;SDS011;13346;50.984;5.822;2024-03-23T03:09:40;7.40;;;2.23;;
24443;SDS011;13346;50.984;5.822;2024-03-23T03:12:06;5.43;;;2.97;;
24443;SDS011;13346;50.984;5.822;2024-03-23T03:14:35;7.33;;;2.77;;
24443;SDS011;13346;50.984;5.822;2024-03-23T03:17:01;8.40;;;2.67;;
24443;SDS011;13346;50.984;5.822;2024-03-23T03:19:29;6.20;;;2.80;;
24443;SDS011;13346;50.984;5.822;2024-03-23T03:21:55;5.73;;;2.87;;
24443;SDS011;13346;50.984;5.822;2024-03-23T03:24:22;8.53;;;3.00;;
24443;SDS011;13346;50.984;5.822;2024-03-23T03:26:48;13.67;;;3.33;;
24443;SDS011;13346;50.984;5.822;2024-03-23T03:29:16;8.73;;;2.53;;
24443;SDS011;13346;50.984;5.822;2024-03-23T03:31:43;5.07;;;3.17;;
24443;SDS011;13346;50.984;5.822;2024-03-23T03:34:11;7.87;;;2.57;;
24443;SDS011;13346;50.984;5.822;2024-03-23T03:36:37;6.93;;;2.43;;
24443;SDS011;13346;50.984;5.822;2024-03-23T03:39:05;5.60;;;3.03;;
24443;SDS011;13346;50.984;5.822;2024-03-23T03:41:32;3.17;;;1.90;;
24443;SDS011;13346;50.984;5.822;2024-03-23T03:43:59;5.80;;;2.97;;
24443;SDS011;13346;50.984;5.822;2024-03-23T03:46:27;8.63;;;2.83;;
24443;SDS011;13346;50.984;5.822;2024-03-23T03:48:55;10.13;;;3.27;;
24443;SDS011;13346;50.984;5.822;2024-03-23T03:51:22;14.17;;;3.87;;
24443;SDS011;13346;50.984;5.822;2024-03-23T03:53:49;3.67;;;1.90;;
24443;SDS011;13346;50.984;5.822;2024-03-23T03:56:15;6.67;;;3.10;;
24443;SDS011;13346;50.984;5.822;2024-03-23T03:58:42;5.43;;;2.23;;
24443;SDS011;13346;50.984;5.822;2024-03-23T04:01:09;7.83;;;3.37;;
24443;SDS011;13346;50.984;5.822;2024-03-23T04:03:36;7.07;;;2.77;;
24443;SDS011;13346;50.984;5.822;2024-03-23T04:06:06;9.90;;;2.20;;
24443;SDS011;13346;50.984;5.822;2024-03-23T04:08:33;5.70;;;2.57;;
24443;SDS011;13346;50.984;5.822;2024-03-23T04:10:59;10.40;;;2.80;;
24443;SDS011;13346;50.984;5.822;2024-03-23T04:13:26;7.20;;;3.00;;
24443;SDS011;13346;50.984;5.822;2024-03-23T04:15:53;3.97;;;2.00;;
24443;SDS011;13346;50.984;5.822;2024-03-23T04:18:21;4.90;;;1.80;;
24443;SDS011;13346;50.984;5.822;2024-03-23T04:20:48;3.90;;;1.60;;
24443;SDS011;13346;50.984;5.822;2024-03-23T04:23:17;3.43;;;2.23;;
24443;SDS011;13346;50.984;5.822;2024-03-23T04:25:43;4.00;;;1.97;;
24443;SDS011;13346;50.984;5.822;2024-03-23T04:28:10;6.13;;;1.97;;
24443;SDS011;13346;50.984;5.822;2024-03-23T04:30:37;5.30;;;1.90;;
24443;SDS011;13346;50.984;5.822;2024-03-23T04:33:04;7.07;;;2.53;;
24443;SDS011;13346;50.984;5.822;2024-03-23T04:35:30;11.57;;;2.93;;
24443;SDS011;13346;50.984;5.822;2024-03-23T04:37:57;7.17;;;2.77;;
24443;SDS011;13346;50.984;5.822;2024-03-23T04:40:26;8.47;;;2.57;;
24443;SDS011;13346;50.984;5.822;2024-03-23T04:42:54;4.60;;;2.57;;
24443;SDS011;13346;50.984;5.822;2024-03-23T04:45:21;10.40;;;3.63;;
24443;SDS011;13346;50.984;5.822;2024-03-23T04:47:48;2.63;;;2.43;;
24443;SDS011;13346;50.984;5.822;2024-03-23T04:50:15;5.20;;;2.97;;
24443;SDS011;13346;50.984;5.822;2024-03-23T04:52:43;7.30;;;2.80;;
24443;SDS011;13346;50.984;5.822;2024-03-23T04:55:10;8.33;;;3.50;;
24443;SDS011;13346;50.984;5.822;2024-03-23T04:57:40;6.63;;;2.90;;
24443;SDS011;13346;50.984;5.822;2024-03-23T05:00:08;5.57;;;3.03;;
24443;SDS011;13346;50.984;5.822;2024-03-23T05:02:42;11.60;;;3.27;;
24443;SDS011;13346;50.984;5.822;2024-03-23T05:05:12;4.57;;;2.60;;
24443;SDS011;13346;50.984;5.822;2024-03-23T05:07:39;5.53;;;3.77;;
24443;SDS011;13346;50.984;5.822;2024-03-23T05:10:07;4.17;;;2.67;;
24443;SDS011;13346;50.984;5.822;2024-03-23T05:12:35;6.73;;;2.70;;
24443;SDS011;13346;50.984;5.822;2024-03-23T05:15:05;7.30;;;2.50;;
24443;SDS011;13346;50.984;5.822;2024-03-23T05:17:33;10.37;;;3.17;;
24443;SDS011;13346;50.984;5.822;2024-03-23T05:20:01;6.90;;;2.97;;
24443;SDS011;13346;50.984;5.822;2024-03-23T05:22:28;4.97;;;3.17;;
24443;SDS011;13346;50.984;5.822;2024-03-23T05:24:56;4.53;;;3.07;;
24443;SDS011;13346;50.984;5.822;2024-03-23T05:27:22;5.60;;;2.23;;
24443;SDS011;13346;50.984;5.822;2024-03-23T05:29:49;7.63;;;3.03;;
24443;SDS011;13346;50.984;5.822;2024-03-23T05:32:16;7.03;;;3.30;;
24443;SDS011;13346;50.984;5.822;2024-03-23T05:34:44;8.10;;;3.37;;
24443;SDS011;13346;50.984;5.822;2024-03-23T05:37:10;7.43;;;3.03;;
24443;SDS011;13346;50.984;5.822;2024-03-23T05:39:37;4.03;;;3.43;;
24443;SDS011;13346;50.984;5.822;2024-03-23T05:42:03;6.53;;;4.17;;
24443;SDS011;13346;50.984;5.822;2024-03-23T05:44:31;9.07;;;3.70;;
24443;SDS011;13346;50.984;5.822;2024-03-23T05:46:57;11.07;;;4.57;;
24443;SDS011;13346;50.984;5.822;2024-03-23T05:49:25;11.53;;;4.27;;
24443;SDS011;13346;50.984;5.822;2024-03-23T05:51:51;7.63;;;4.80;;
24443;SDS011;13346;50.984;5.822;2024-03-23T05:54:20;14.87;;;4.37;;
24443;SDS011;13346;50.984;5.822;2024-03-23T05:56:47;13.83;;;3.47;;
24443;SDS011;13346;50.984;5.822;2024-03-23T05:59:14;5.43;;;3.47;;
24443;SDS011;13346;50.984;5.822;2024-03-23T06:01:41;12.33;;;4.90;;
24443;SDS011;13346;50.984;5.822;2024-03-23T06:04:07;10.83;;;5.40;;
24443;SDS011;13346;50.984;5.822;2024-03-23T06:06:36;10.47;;;5.37;;
24443;SDS011;13346;50.984;5.822;2024-03-23T06:09:02;6.53;;;4.20;;
24443;SDS011;13346;50.984;5.822;2024-03-23T06:11:29;13.53;;;6.50;;
24443;SDS011;13346;50.984;5.822;2024-03-23T06:13:55;8.97;;;5.17;;
24443;SDS011;13346;50.984;5.822;2024-03-23T06:16:25;16.00;;;6.00;;
24443;SDS011;13346;50.984;5.822;2024-03-23T06:18:53;29.87;;;5.97;;
24443;SDS011;13346;50.984;5.822;2024-03-23T06:21:21;9.07;;;5.90;;
24443;SDS011;13346;50.984;5.822;2024-03-23T06:23:51;14.90;;;6.33;;
24443;SDS011;13346;50.984;5.822;2024-03-23T06:26:19;9.93;;;5.67;;
24443;SDS011;13346;50.984;5.822;2024-03-23T06:28:45;14.00;;;6.23;;
24443;SDS011;13346;50.984;5.822;2024-03-23T06:31:13;4.90;;;3.43;;
24443;SDS011;13346;50.984;5.822;2024-03-23T06:33:39;4.53;;;2.83;;
24443;SDS011;13346;50.984;5.822;2024-03-23T06:36:10;4.80;;;2.87;;
24443;SDS011;13346;50.984;5.822;2024-03-23T06:38:36;2.13;;;1.60;;
24443;SDS011;13346;50.984;5.822;2024-03-23T06:41:05;1.83;;;1.73;;
24443;SDS011;13346;50.984;5.822;2024-03-23T06:43:32;1.67;;;1.53;;
24443;SDS011;13346;50.984;5.822;2024-03-23T06:45:59;4.77;;;2.40;;
24443;SDS011;13346;50.984;5.822;2024-03-23T06:48:25;6.33;;;2.63;;
24443;SDS011;13346;50.984;5.822;2024-03-23T06:50:55;4.13;;;1.90;;
24443;SDS011;13346;50.984;5.822;2024-03-23T06:53:22;2.83;;;1.57;;
24443;SDS011;13346;50.984;5.822;2024-03-23T06:55:50;3.73;;;1.47;;
24443;SDS011;13346;50.984;5.822;2024-03-23T06:58:18;4.23;;;2.37;;
24443;SDS011;13346;50.984;5.822;2024-03-23T07:00:46;7.90;;;2.50;;
24443;SDS011;13346;50.984;5.822;2024-03-23T07:03:12;5.10;;;2.23;;
24443;SDS011;13346;50.984;5.822;2024-03-23T07:05:39;5.10;;;1.77;;
24443;SDS011;13346;50.984;5.822;2024-03-23T07:08:05;8.40;;;1.87;;
24443;SDS011;13346;50.984;5.822;2024-03-23T07:10:33;4.90;;;2.53;;
24443;SDS011;13346;50.984;5.822;2024-03-23T07:12:59;3.93;;;2.53;;
24443;SDS011;13346;50.984;5.822;2024-03-23T07:15:27;4.87;;;3.37;;
24443;SDS011;13346;50.984;5.822;2024-03-23T07:17:54;4.53;;;3.83;;
24443;SDS011;13346;50.984;5.822;2024-03-23T07:20:21;7.47;;;3.87;;
24443;SDS011;13346;50.984;5.822;2024-03-23T07:22:47;7.47;;;5.07;;
24443;SDS011;13346;50.984;5.822;2024-03-23T07:25:14;9.77;;;5.87;;
24443;SDS011;13346;50.984;5.822;2024-03-23T07:27:40;7.67;;;4.77;;
24443;SDS011;13346;50.984;5.822;2024-03-23T07:30:08;7.47;;;4.60;;
24443;SDS011;13346;50.984;5.822;2024-03-23T07:32:35;10.40;;;5.27;;
24443;SDS011;13346;50.984;5.822;2024-03-23T07:35:03;7.57;;;5.73;;
24443;SDS011;13346;50.984;5.822;2024-03-23T07:37:29;9.17;;;5.43;;
24443;SDS011;13346;50.984;5.822;2024-03-23T07:39:56;9.17;;;5.57;;
24443;SDS011;13346;50.984;5.822;2024-03-23T07:42:24;5.80;;;5.10;;
24443;SDS011;13346;50.984;5.822;2024-03-23T07:44:51;16.07;;;6.30;;
24443;SDS011;13346;50.984;5.822;2024-03-23T07:47:20;11.47;;;6.00;;
24443;SDS011;13346;50.984;5.822;2024-03-23T07:49:48;4.87;;;3.70;;
24443;SDS011;13346;50.984;5.822;2024-03-23T07:52:14;11.00;;;4.97;;
24443;SDS011;13346;50.984;5.822;2024-03-23T07:54:43;9.10;;;4.90;;
24443;SDS011;13346;50.984;5.822;2024-03-23T07:57:09;11.03;;;5.23;;
24443;SDS011;13346;50.984;5.822;2024-03-23T07:59:36;8.90;;;6.00;;
24443;SDS011;13346;50.984;5.822;2024-03-23T08:02:02;7.13;;;4.33;;
24443;SDS011;13346;50.984;5.822;2024-03-23T08:04:30;13.40;;;6.10;;
24443;SDS011;13346;50.984;5.822;2024-03-23T08:06:57;11.60;;;5.07;;
24443;SDS011;13346;50.984;5.822;2024-03-23T08:09:24;10.40;;;4.47;;
24443;SDS011;13346;50.984;5.822;2024-03-23T08:11:51;8.10;;;4.07;;
24443;SDS011;13346;50.984;5.822;2024-03-23T08:14:18;10.47;;;4.93;;
24443;SDS011;13346;50.984;5.822;2024-03-23T08:16:44;8.27;;;4.37;;
24443;SDS011;13346;50.984;5.822;2024-03-23T08:19:14;4.83;;;3.97;;
24443;SDS011;13346;50.984;5.822;2024-03-23T08:21:40;7.40;;;3.83;;
24443;SDS011;13346;50.984;5.822;2024-03-23T08:24:09;5.43;;;4.00;;
24443;SDS011;13346;50.984;5.822;2024-03-23T08:26:35;5.13;;;3.83;;
24443;SDS011;13346;50.984;5.822;2024-03-23T08:29:05;6.63;;;3.23;;
24443;SDS011;13346;50.984;5.822;2024-03-23T08:31:31;13.03;;;4.20;;
24443;SDS011;13346;50.984;5.822;2024-03-23T08:33:58;5.97;;;3.53;;
24443;SDS011;13346;50.984;5.822;2024-03-23T08:36:24;6.73;;;3.27;;
24443;SDS011;13346;50.984;5.822;2024-03-23T08:38:51;4.40;;;2.93;;
24443;SDS011;13346;50.984;5.822;2024-03-23T08:41:20;6.17;;;2.93;;
24443;SDS011;13346;50.984;5.822;2024-03-23T08:43:47;6.93;;;3.43;;
24443;SDS011;13346;50.984;5.822;2024-03-23T08:46:14;8.07;;;3.03;;
24443;SDS011;13346;50.984;5.822;2024-03-23T08:48:42;2.70;;;2.47;;
24443;SDS011;13346;50.984;5.822;2024-03-23T08:51:10;3.63;;;2.83;;
24443;SDS011;13346;50.984;5.822;2024-03-23T08:53:39;5.17;;;2.30;;
24443;SDS011;13346;50.984;5.822;2024-03-23T08:56:05;6.77;;;2.97;;
24443;SDS011;13346;50.984;5.822;2024-03-23T08:58:35;6.87;;;2.80;;
24443;SDS011;13346;50.984;5.822;2024-03-23T09:01:05;6.50;;;2.60;;
24443;SDS011;13346;50.984;5.822;2024-03-23T09:03:34;3.13;;;2.00;;
24443;SDS011;13346;50.984;5.822;2024-03-23T09:06:00;5.70;;;1.97;;
24443;SDS011;13346;50.984;5.822;2024-03-23T09:08:27;6.20;;;3.23;;
24443;SDS011;13346;50.984;5.822;2024-03-23T09:10:53;8.10;;;3.27;;
24443;SDS011;13346;50.984;5.822;2024-03-23T09:13:21;6.77;;;3.13;;
24443;SDS011;13346;50.984;5.822;2024-03-23T09:15:49;6.80;;;2.00;;
24443;SDS011;13346;50.984;5.822;2024-03-23T09:18:19;2.10;;;1.90;;
24443;SDS011;13346;50.984;5.822;2024-03-23T09:20:45;5.30;;;2.13;;
24443;SDS011;13346;50.984;5.822;2024-03-23T09:23:12;3.50;;;1.80;;
24443;SDS011;13346;50.984;5.822;2024-03-23T09:25:38;6.10;;;3.00;;
24443;SDS011;13346;50.984;5.822;2024-03-23T09:28:06;8.63;;;2.27;;
24443;SDS011;13346;50.984;5.822;2024-03-23T09:30:33;6.27;;;2.37;;
24443;SDS011;13346;50.984;5.822;2024-03-23T09:33:02;8.43;;;3.03;;
24443;SDS011;13346;50.984;5.822;2024-03-23T09:35:29;5.70;;;2.30;;
24443;SDS011;13346;50.984;5.822;2024-03-23T09:37:56;2.93;;;1.70;;
24443;SDS011;13346;50.984;5.822;2024-03-23T09:40:23;3.67;;;2.23;;
24443;SDS011;13346;50.984;5.822;2024-03-23T09:42:50;6.30;;;2.20;;
24443;SDS011;13346;50.984;5.822;2024-03-23T09:45:17;3.37;;;2.30;;
24443;SDS011;13346;50.984;5.822;2024-03-23T09:47:47;4.27;;;2.07;;
24443;SDS011;13346;50.984;5.822;2024-03-23T09:50:15;4.43;;;2.70;;
24443;SDS011;13346;50.984;5.822;2024-03-23T09:52:42;3.23;;;1.30;;
24443;SDS011;13346;50.984;5.822;2024-03-23T09:55:08;2.77;;;1.67;;
24443;SDS011;13346;50.984;5.822;2024-03-23T09:57:36;3.83;;;1.77;;
24443;SDS011;13346;50.984;5.822;2024-03-23T10:00:02;2.17;;;1.47;;
24443;SDS011;13346;50.984;5.822;2024-03-23T10:02:30;3.53;;;1.93;;
24443;SDS011;13346;50.984;5.822;2024-03-23T10:04:56;2.63;;;1.33;;
24443;SDS011;13346;50.984;5.822;2024-03-23T10:07:25;1.63;;;1.20;;
24443;SDS011;13346;50.984;5.822;2024-03-23T10:09:53;5.70;;;1.80;;
24443;SDS011;13346;50.984;5.822;2024-03-23T10:12:21;2.80;;;1.60;;
24443;SDS011;13346;50.984;5.822;2024-03-23T10:14:49;1.07;;;0.90;;
24443;SDS011;13346;50.984;5.822;2024-03-23T10:17:16;7.67;;;1.63;;
24443;SDS011;13346;50.984;5.822;2024-03-23T10:19:43;2.83;;;1.27;;
24443;SDS011;13346;50.984;5.822;2024-03-23T10:22:12;2.23;;;1.57;;
24443;SDS011;13346;50.984;5.822;2024-03-23T10:24:41;2.97;;;1.97;;
24443;SDS011;13346;50.984;5.822;2024-03-23T10:27:08;3.43;;;2.03;;
24443;SDS011;13346;50.984;5.822;2024-03-23T10:29:34;3.83;;;1.77;;
24443;SDS011;13346;50.984;5.822;2024-03-23T10:32:08;3.00;;;1.90;;
24443;SDS011;13346;50.984;5.822;2024-03-23T10:34:35;3.03;;;1.57;;
24443;SDS011;13346;50.984;5.822;2024-03-23T10:37:02;2.43;;;1.43;;
24443;SDS011;13346;50.984;5.822;2024-03-23T10:39:32;5.23;;;1.60;;
24443;SDS011;13346;50.984;5.822;2024-03-23T10:42:06;2.40;;;2.17;;
24443;SDS011;13346;50.984;5.822;2024-03-23T10:44:32;2.10;;;1.30;;
24443;SDS011;13346;50.984;5.822;2024-03-23T10:47:00;2.47;;;1.87;;
24443;SDS011;13346;50.984;5.822;2024-03-23T10:49:28;4.53;;;1.77;;
24443;SDS011;13346;50.984;5.822;2024-03-23T10:51:57;3.17;;;1.80;;
24443;SDS011;13346;50.984;5.822;2024-03-23T10:54:24;1.90;;;1.47;;
24443;SDS011;13346;50.984;5.822;2024-03-23T10:56:52;5.70;;;2.33;;
24443;SDS011;13346;50.984;5.822;2024-03-23T10:59:23;6.87;;;2.10;;
24443;SDS011;13346;50.984;5.822;2024-03-23T11:01:55;4.43;;;2.10;;
24443;SDS011;13346;50.984;5.822;2024-03-23T11:04:31;4.90;;;2.40;;
24443;SDS011;13346;50.984;5.822;2024-03-23T11:06:59;10.40;;;3.55;;
24443;SDS011;13346;50.984;5.822;2024-03-23T11:09:38;3.67;;;1.98;;
24443;SDS011;13346;50.984;5.822;2024-03-23T11:12:17;5.25;;;2.15;;
24443;SDS011;13346;50.984;5.822;2024-03-23T11:14:53;8.57;;;3.03;;
24443;SDS011;13346;50.984;5.822;2024-03-23T11:17:21;3.47;;;1.20;;
24443;SDS011;13346;50.984;5.822;2024-03-23T11:19:55;0.80;;;0.80;;
24443;SDS011;13346;50.984;5.822;2024-03-23T11:25:12;0.60;;;0.60;;
24443;SDS011;13346;50.984;5.822;2024-03-23T11:27:39;2.47;;;0.97;;
24443;SDS011;13346;50.984;5.822;2024-03-23T11:30:11;1.70;;;0.60;;
24443;SDS011;13346;50.984;5.822;2024-03-23T11:32:39;0.43;;;0.43;;
24443;SDS011;13346;50.984;5.822;2024-03-23T11:35:06;0.63;;;0.50;;
24443;SDS011;13346;50.984;5.822;2024-03-23T11:37:35;2.10;;;0.97;;
24443;SDS011;13346;50.984;5.822;2024-03-23T11:40:16;1.60;;;0.97;;
24443;SDS011;13346;50.984;5.822;2024-03-23T11:42:44;2.27;;;0.93;;
24443;SDS011;13346;50.984;5.822;2024-03-23T11:45:13;1.40;;;1.20;;
24443;SDS011;13346;50.984;5.822;2024-03-23T11:47:41;2.73;;;0.90;;
24443;SDS011;13346;50.984;5.822;2024-03-23T11:50:07;0.90;;;0.73;;
24443;SDS011;13346;50.984;5.822;2024-03-23T11:52:35;5.10;;;1.03;;
24443;SDS011;13346;50.984;5.822;2024-03-23T11:55:04;1.20;;;1.10;;
24443;SDS011;13346;50.984;5.822;2024-03-23T11:57:33;1.50;;;1.23;;
24443;SDS011;13346;50.984;5.822;2024-03-23T12:00:00;1.03;;;0.97;;
24443;SDS011;13346;50.984;5.822;2024-03-23T12:02:31;3.90;;;0.87;;
24443;SDS011;13346;50.984;5.822;2024-03-23T12:04:58;0.53;;;0.53;;
24443;SDS011;13346;50.984;5.822;2024-03-23T12:07:39;1.37;;;1.37;;
24443;SDS011;13346;50.984;5.822;2024-03-23T12:10:06;3.80;;;2.00;;
24443;SDS011;13346;50.984;5.822;2024-03-23T12:12:34;1.87;;;1.53;;
24443;SDS011;13346;50.984;5.822;2024-03-23T12:15:03;3.07;;;1.47;;
24443;SDS011;13346;50.984;5.822;2024-03-23T12:17:33;2.77;;;1.23;;
24443;SDS011;13346;50.984;5.822;2024-03-23T12:20:00;2.37;;;1.60;;
24443;SDS011;13346;50.984;5.822;2024-03-23T12:22:28;4.33;;;1.50;;
24443;SDS011;13346;50.984;5.822;2024-03-23T12:24:55;2.50;;;2.23;;
24443;SDS011;13346;50.984;5.822;2024-03-23T12:27:23;2.93;;;1.93;;
24443;SDS011;13346;50.984;5.822;2024-03-23T12:29:49;4.80;;;2.53;;
24443;SDS011;13346;50.984;5.822;2024-03-23T12:32:18;3.17;;;1.73;;
24443;SDS011;13346;50.984;5.822;2024-03-23T12:34:46;3.80;;;2.20;;
24443;SDS011;13346;50.984;5.822;2024-03-23T12:37:13;4.93;;;2.30;;
24443;SDS011;13346;50.984;5.822;2024-03-23T12:39:41;1.17;;;1.17;;
24443;SDS011;13346;50.984;5.822;2024-03-23T12:42:08;1.57;;;1.40;;
24443;SDS011;13346;50.984;5.822;2024-03-23T12:44:34;1.53;;;0.90;;
24443;SDS011;13346;50.984;5.822;2024-03-23T12:47:02;2.60;;;1.30;;
24443;SDS011;13346;50.984;5.822;2024-03-23T12:49:28;1.00;;;0.90;;
24443;SDS011;13346;50.984;5.822;2024-03-23T12:51:56;2.27;;;1.40;;
24443;SDS011;13346;50.984;5.822;2024-03-23T12:54:23;2.00;;;1.33;;
24443;SDS011;13346;50.984;5.822;2024-03-23T12:56:51;2.10;;;1.43;;
24443;SDS011;13346;50.984;5.822;2024-03-23T12:59:17;1.20;;;0.60;;
24443;SDS011;13346;50.984;5.822;2024-03-23T13:01:45;2.20;;;1.17;;
24443;SDS011;13346;50.984;5.822;2024-03-23T13:04:11;0.97;;;0.93;;
24443;SDS011;13346;50.984;5.822;2024-03-23T13:06:38;2.03;;;0.90;;
24443;SDS011;13346;50.984;5.822;2024-03-23T13:09:06;1.00;;;1.00;;
24443;SDS011;13346;50.984;5.822;2024-03-23T13:11:34;1.63;;;1.30;;
24443;SDS011;13346;50.984;5.822;2024-03-23T13:14:00;1.25;;;1.23;;
24443;SDS011;13346;50.984;5.822;2024-03-23T13:16:29;2.35;;;1.33;;
24443;SDS011;13346;50.984;5.822;2024-03-23T13:18:55;4.53;;;1.50;;
24443;SDS011;13346;50.984;5.822;2024-03-23T13:21:22;5.93;;;1.63;;
24443;SDS011;13346;50.984;5.822;2024-03-23T13:23:48;2.73;;;1.57;;
24443;SDS011;13346;50.984;5.822;2024-03-23T13:26:17;5.90;;;2.13;;
24443;SDS011;13346;50.984;5.822;2024-03-23T13:28:44;1.60;;;1.50;;
24443;SDS011;13346;50.984;5.822;2024-03-23T13:31:11;1.90;;;1.77;;
24443;SDS011;13346;50.984;5.822;2024-03-23T13:33:37;6.03;;;1.80;;
24443;SDS011;13346;50.984;5.822;2024-03-23T13:36:05;1.37;;;1.13;;
24443;SDS011;13346;50.984;5.822;2024-03-23T13:38:31;3.63;;;1.50;;
24443;SDS011;13346;50.984;5.822;2024-03-23T13:40:59;1.33;;;1.27;;
24443;SDS011;13346;50.984;5.822;2024-03-23T13:43:27;1.47;;;1.37;;
24443;SDS011;13346;50.984;5.822;2024-03-23T13:45:56;2.10;;;1.87;;
24443;SDS011;13346;50.984;5.822;2024-03-23T13:48:24;1.23;;;1.20;;
24443;SDS011;13346;50.984;5.822;2024-03-23T13:50:57;4.90;;;1.40;;
24443;SDS011;13346;50.984;5.822;2024-03-23T13:53:23;1.33;;;1.23;;
24443;SDS011;13346;50.984;5.822;2024-03-23T13:55:51;3.80;;;1.30;;
24443;SDS011;13346;50.984;5.822;2024-03-23T13:58:18;3.60;;;1.50;;
24443;SDS011;13346;50.984;5.822;2024-03-23T14:00:46;1.50;;;1.43;;
24443;SDS011;13346;50.984;5.822;2024-03-23T14:03:13;1.63;;;1.53;;
24443;SDS011;13346;50.984;5.822;2024-03-23T14:05:40;3.33;;;1.93;;
24443;SDS011;13346;50.984;5.822;2024-03-23T14:08:07;2.97;;;1.50;;
24443;SDS011;13346;50.984;5.822;2024-03-23T14:10:35;1.73;;;1.63;;
24443;SDS011;13346;50.984;5.822;2024-03-23T14:13:02;1.43;;;1.13;;
24443;SDS011;13346;50.984;5.822;2024-03-23T14:15:29;6.63;;;1.57;;
24443;SDS011;13346;50.984;5.822;2024-03-23T14:17:57;1.37;;;1.10;;
24443;SDS011;13346;50.984;5.822;2024-03-23T14:20:25;1.20;;;1.20;;
24443;SDS011;13346;50.984;5.822;2024-03-23T14:22:54;1.77;;;0.77;;
24443;SDS011;13346;50.984;5.822;2024-03-23T14:25:21;4.63;;;1.13;;
24443;SDS011;13346;50.984;5.822;2024-03-23T14:27:52;1.23;;;1.13;;
24443;SDS011;13346;50.984;5.822;2024-03-23T14:30:19;4.50;;;1.47;;
24443;SDS011;13346;50.984;5.822;2024-03-23T14:32:45;1.47;;;1.37;;
24443;SDS011;13346;50.984;5.822;2024-03-23T14:35:14;2.63;;;1.37;;
24443;SDS011;13346;50.984;5.822;2024-03-23T14:37:40;2.53;;;1.53;;
24443;SDS011;13346;50.984;5.822;2024-03-23T14:40:08;0.90;;;0.90;;
24443;SDS011;13346;50.984;5.822;2024-03-23T14:42:38;1.23;;;1.13;;
24443;SDS011;13346;50.984;5.822;2024-03-23T14:45:05;2.33;;;1.47;;
24443;SDS011;13346;50.984;5.822;2024-03-23T14:47:32;1.97;;;1.40;;
24443;SDS011;13346;50.984;5.822;2024-03-23T14:50:00;1.87;;;1.77;;
24443;SDS011;13346;50.984;5.822;2024-03-23T14:52:27;2.60;;;1.53;;
24443;SDS011;13346;50.984;5.822;2024-03-23T14:54:54;3.73;;;1.87;;
24443;SDS011;13346;50.984;5.822;2024-03-23T14:57:22;2.40;;;1.50;;
24443;SDS011;13346;50.984;5.822;2024-03-23T14:59:49;1.70;;;1.07;;
24443;SDS011;13346;50.984;5.822;2024-03-23T15:02:15;1.90;;;1.70;;
24443;SDS011;13346;50.984;5.822;2024-03-23T15:04:42;3.07;;;1.57;;
24443;SDS011;13346;50.984;5.822;2024-03-23T15:07:09;1.70;;;1.60;;
24443;SDS011;13346;50.984;5.822;2024-03-23T15:09:37;1.40;;;1.33;;
24443;SDS011;13346;50.984;5.822;2024-03-23T15:12:04;4.20;;;2.17;;
24443;SDS011;13346;50.984;5.822;2024-03-23T15:14:32;1.77;;;1.20;;
24443;SDS011;13346;50.984;5.822;2024-03-23T15:16:59;2.70;;;1.50;;
24443;SDS011;13346;50.984;5.822;2024-03-23T15:19:29;4.70;;;1.80;;
24443;SDS011;13346;50.984;5.822;2024-03-23T15:21:56;3.07;;;1.60;;
24443;SDS011;13346;50.984;5.822;2024-03-23T15:24:23;2.77;;;2.57;;
24443;SDS011;13346;50.984;5.822;2024-03-23T15:26:52;1.73;;;1.63;;
24443;SDS011;13346;50.984;5.822;2024-03-23T15:29:20;1.77;;;1.67;;
24443;SDS011;13346;50.984;5.822;2024-03-23T15:31:47;3.57;;;1.70;;
24443;SDS011;13346;50.984;5.822;2024-03-23T15:34:18;2.03;;;1.60;;
24443;SDS011;13346;50.984;5.822;2024-03-23T15:36:45;1.47;;;1.37;;
24443;SDS011;13346;50.984;5.822;2024-03-23T15:39:12;1.50;;;1.40;;
24443;SDS011;13346;50.984;5.822;2024-03-23T15:41:39;4.63;;;2.07;;
24443;SDS011;13346;50.984;5.822;2024-03-23T15:44:08;5.77;;;1.90;;